If you wish to contribute or participate in the discussions about articles you are invited to join SKYbrary as a registered user

 Actions

Robinson Crusoe Airport

From SKYbrary Wiki

SCIR
Airport
ICAO: SCIR
Summary
Name Robinson Crusoe Airport
Region South America and Caribbean
Territory Chile CL.gif
Location Isla Robinson Crusoe, Valparaiso
Serving San Juan Bautista
Elevation 131.978 m
433 ft
433 ft131.978 m
Type small airport
Coordinates 33° 39' 54.00" S, 78° 55' 46.93" W
Runways
Designator Length Width Surface ROPS
14/32 860 m2,821.522 ft
18 m59.055 ft
ASP /


METAR
Observation SCIR 221200Z 13020KT 9999 SCT028 BKN040 10/06 Q1024
Station ROBINSON CRUSOE
Date/Time 22 September 2019 12:00:00
Wind direction 130°
Wind speed 20 kts
Lowest cloud amount scattered clouds
Temperature 10°C
Dew point 6°C
Humidity 76%
QNH 1024 hPa
Weather condition n/a

Airport on the island of Robinson Crusoe, Chile.

Climatology

Temperate oceanic climate (Köppen climate classification Cfb)

Maps

Terrain

Loading map...

Airport Layout

Loading map...


Accidents & Serious Incidents at or in vicinity of SCIR

None on SKYbrary